createdAt,value
2023-02-24T00:02:21.568Z,9.30
2023-02-24T00:05:07.891Z,9.40
2023-02-24T00:07:53.802Z,9.40
2023-02-24T00:10:40.125Z,9.30
2023-02-24T00:13:07.813Z,9.20
2023-02-24T00:16:01.048Z,9.30
2023-02-24T00:18:32.698Z,9.20
2023-02-24T00:21:20.527Z,9.40
2023-02-24T00:24:06.866Z,9.30
2023-02-24T00:27:00.053Z,9.30
2023-02-24T00:29:29.216Z,9.30
2023-02-24T00:32:18.137Z,9.20
2023-02-24T00:35:04.374Z,9.20
2023-02-24T00:37:51.473Z,9.30
2023-02-24T00:40:37.352Z,9.20
2023-02-24T00:43:23.071Z,9.20
2023-02-24T00:46:11.837Z,9.10
2023-02-24T00:48:41.929Z,9.20
2023-02-24T00:51:30.916Z,9.00
2023-02-24T00:53:58.438Z,8.90
2023-02-24T00:56:46.254Z,8.90
2023-02-24T00:59:33.194Z,8.80
2023-02-24T01:02:20.438Z,8.90
2023-02-24T01:05:09.502Z,8.90
2023-02-24T01:07:55.336Z,8.80
2023-02-24T01:11:03.033Z,8.90
2023-02-24T01:13:50.466Z,8.90
2023-02-24T01:16:21.039Z,9.00
2023-02-24T01:19:07.289Z,8.90
2023-02-24T01:21:55.641Z,8.90
2023-02-24T01:24:23.859Z,8.70
2023-02-24T01:27:12.361Z,8.60
2023-02-24T01:30:01.211Z,8.70
2023-02-24T01:32:41.123Z,8.60
2023-02-24T01:35:29.392Z,8.80
2023-02-24T01:38:15.322Z,9.00
2023-02-24T01:41:01.015Z,8.90
2023-02-24T01:44:31.450Z,9.10
2023-02-24T01:47:23.178Z,9.10
2023-02-24T01:50:14.973Z,9.10
2023-02-24T01:53:04.558Z,9.20
2023-02-24T01:55:52.266Z,9.30
2023-02-24T01:58:40.375Z,9.20
2023-02-24T02:01:26.395Z,9.40
2023-02-24T02:04:40.410Z,9.40
2023-02-24T02:07:29.510Z,9.20
2023-02-24T02:10:00.510Z,9.20
2023-02-24T02:12:46.684Z,9.10
2023-02-24T02:15:35.719Z,8.80
2023-02-24T02:18:45.125Z,8.50
2023-02-24T02:21:44.952Z,8.40
2023-02-24T02:24:27.340Z,8.60
2023-02-24T02:27:29.555Z,8.90
2023-02-24T02:30:23.903Z,8.60
2023-02-24T02:33:48.431Z,8.50
2023-02-24T02:37:01.981Z,8.60
2023-02-24T02:39:39.038Z,8.70
2023-02-24T02:42:50.444Z,8.60
2023-02-24T02:45:48.185Z,8.50
2023-02-24T02:48:57.486Z,8.50
2023-02-24T02:51:52.030Z,8.70
2023-02-24T02:54:35.502Z,8.90
2023-02-24T02:57:27.224Z,8.50
2023-02-24T03:00:37.229Z,8.40
2023-02-24T03:03:26.211Z,8.30
2023-02-24T03:05:59.694Z,8.40
2023-02-24T03:09:22.763Z,8.30
2023-02-24T03:12:18.313Z,8.00
2023-02-24T03:15:10.656Z,7.70
2023-02-24T03:18:10.157Z,7.70
2023-02-24T03:21:24.962Z,8.20
2023-02-24T03:24:13.045Z,8.80
2023-02-24T03:27:06.977Z,8.20
2023-02-24T03:30:18.029Z,7.90
2023-02-24T03:33:18.062Z,8.00
2023-02-24T03:36:04.493Z,8.30
2023-02-24T03:38:50.280Z,8.30
2023-02-24T03:41:43.360Z,8.20
2023-02-24T03:44:29.428Z,8.20
2023-02-24T03:47:20.349Z,8.50
2023-02-24T03:50:18.807Z,8.70
2023-02-24T03:53:30.522Z,8.60
2023-02-24T03:56:45.960Z,8.60
2023-02-24T03:59:52.890Z,8.80
2023-02-24T04:02:38.967Z,8.90
2023-02-24T04:05:29.245Z,8.70
2023-02-24T04:08:17.364Z,8.70
2023-02-24T04:10:59.638Z,9.00
2023-02-24T04:13:50.956Z,9.20
2023-02-24T04:17:08.312Z,9.30
2023-02-24T04:19:57.790Z,9.20
2023-02-24T04:22:48.960Z,9.10
2023-02-24T04:25:35.841Z,9.20
2023-02-24T04:28:23.877Z,9.30
2023-02-24T04:31:17.766Z,9.30
2023-02-24T04:34:07.370Z,9.20
2023-02-24T04:36:52.929Z,9.20
2023-02-24T04:39:40.415Z,9.00
2023-02-24T04:42:26.654Z,8.60
2023-02-24T04:45:16.948Z,8.20
2023-02-24T04:48:04.029Z,8.00
2023-02-24T04:50:55.185Z,7.80
2023-02-24T04:53:41.116Z,7.90
2023-02-24T04:56:29.061Z,8.00
2023-02-24T04:59:15.557Z,8.20
2023-02-24T05:02:01.769Z,8.20
2023-02-24T05:04:49.738Z,8.20
2023-02-24T05:07:35.445Z,8.20
2023-02-24T05:10:02.928Z,8.40
2023-02-24T05:12:48.932Z,8.40
2023-02-24T05:15:34.293Z,8.00
2023-02-24T05:18:07.804Z,8.00
2023-02-24T05:21:14.104Z,7.90
2023-02-24T05:24:05.076Z,7.80
2023-02-24T05:26:58.065Z,7.90
2023-02-24T05:29:44.221Z,7.80
2023-02-24T05:32:32.253Z,7.80
2023-02-24T05:35:19.530Z,7.90
2023-02-24T05:37:59.190Z,8.00
2023-02-24T05:40:32.827Z,8.00
2023-02-24T05:43:19.293Z,7.80
2023-02-24T05:46:07.189Z,7.90
2023-02-24T05:48:56.695Z,7.90
2023-02-24T05:51:54.682Z,7.90
2023-02-24T05:54:42.551Z,7.90
2023-02-24T05:57:33.048Z,8.10
2023-02-24T06:00:19.338Z,8.20
2023-02-24T06:03:17.238Z,8.30
2023-02-24T06:06:09.109Z,8.30
2023-02-24T06:08:50.978Z,8.40
2023-02-24T06:11:21.726Z,8.20
2023-02-24T06:13:49.509Z,8.00
2023-02-24T06:16:19.142Z,8.10
2023-02-24T06:18:51.762Z,8.30
2023-02-24T06:21:20.255Z,8.40
2023-02-24T06:23:47.915Z,8.60
2023-02-24T06:26:19.690Z,8.70
2023-02-24T06:29:05.774Z,8.70
2023-02-24T06:31:54.775Z,8.70
2023-02-24T06:34:43.435Z,8.40
2023-02-24T06:37:23.563Z,8.20
2023-02-24T06:40:16.246Z,8.20
2023-02-24T06:43:01.241Z,8.10
2023-02-24T06:45:32.252Z,8.10
2023-02-24T06:48:04.262Z,8.40
2023-02-24T06:50:51.743Z,8.50
2023-02-24T06:53:43.489Z,8.60
2023-02-24T06:56:20.011Z,8.60
2023-02-24T06:59:07.047Z,8.80
2023-02-24T07:01:54.112Z,8.90
2023-02-24T07:04:44.478Z,8.80
2023-02-24T07:07:30.296Z,8.40
2023-02-24T07:10:00.506Z,8.80
2023-02-24T07:12:36.853Z,8.90
2023-02-24T07:15:24.597Z,8.60
2023-02-24T07:18:14.859Z,8.50
2023-02-24T07:20:46.848Z,8.30
2023-02-24T07:23:16.021Z,8.20
2023-02-24T07:25:46.428Z,8.00
2023-02-24T07:28:34.527Z,8.40
2023-02-24T07:31:08.451Z,8.80
2023-02-24T07:33:57.336Z,9.10
2023-02-24T07:36:30.134Z,9.40
2023-02-24T07:39:17.946Z,9.50
2023-02-24T07:42:06.874Z,9.70
2023-02-24T07:44:34.536Z,9.70
2023-02-24T07:47:22.993Z,9.50
2023-02-24T07:50:14.127Z,9.10
2023-02-24T07:53:05.244Z,8.60
2023-02-24T07:55:36.036Z,8.40
2023-02-24T07:58:05.990Z,8.60
2023-02-24T08:01:00.955Z,8.70
2023-02-24T08:03:46.575Z,8.70
2023-02-24T08:06:15.596Z,9.00
2023-02-24T08:09:43.130Z,9.00
2023-02-24T08:12:11.759Z,9.40
2023-02-24T08:15:00.349Z,9.10
2023-02-24T08:17:47.648Z,9.00
2023-02-24T08:20:15.697Z,8.80
2023-02-24T08:23:01.426Z,8.60
2023-02-24T08:25:47.155Z,8.80
2023-02-24T08:28:14.689Z,8.70
2023-02-24T08:30:47.231Z,8.60
2023-02-24T08:33:23.181Z,8.70
2023-02-24T08:36:09.490Z,8.60
2023-02-24T08:38:59.411Z,8.60
2023-02-24T08:41:45.002Z,8.80
2023-02-24T08:44:35.126Z,8.60
2023-02-24T08:47:31.058Z,8.60
2023-02-24T08:50:16.407Z,8.80
2023-02-24T08:53:03.255Z,8.90
2023-02-24T08:55:52.617Z,8.90
2023-02-24T08:58:28.820Z,8.80
2023-02-24T09:01:19.440Z,9.00
2023-02-24T09:04:18.820Z,8.90
2023-02-24T09:07:12.105Z,8.80
2023-02-24T09:09:59.959Z,8.80
2023-02-24T09:12:42.360Z,9.00
2023-02-24T09:15:12.226Z,9.10
2023-02-24T09:18:07.793Z,9.00
2023-02-24T09:20:54.131Z,9.10
2023-02-24T09:23:49.035Z,9.20
2023-02-24T09:26:44.960Z,9.30
2023-02-24T09:29:49.323Z,9.20
2023-02-24T09:32:38.998Z,9.20
2023-02-24T09:35:06.669Z,9.10
2023-02-24T09:37:34.418Z,9.20
2023-02-24T09:40:20.489Z,9.30
2023-02-24T09:43:17.921Z,9.60
2023-02-24T09:46:17.307Z,9.90
2023-02-24T09:48:54.928Z,9.50
2023-02-24T09:51:43.529Z,9.30
2023-02-24T09:54:35.479Z,9.20
2023-02-24T09:57:25.685Z,9.60
2023-02-24T10:00:25.068Z,9.50
2023-02-24T10:03:50.930Z,9.40
2023-02-24T10:06:45.048Z,9.00
2023-02-24T10:09:41.383Z,9.70
2023-02-24T10:12:40.301Z,9.80
2023-02-24T10:15:57.011Z,10.10
2023-02-24T10:18:27.388Z,10.20
2023-02-24T10:22:00.570Z,9.70
2023-02-24T10:25:01.626Z,9.60
2023-02-24T10:28:20.258Z,11.30
2023-02-24T10:31:26.582Z,12.10
2023-02-24T10:34:08.650Z,13.60
2023-02-24T10:36:57.665Z,12.40
2023-02-24T10:39:44.152Z,11.40
2023-02-24T10:42:30.940Z,10.40
2023-02-24T10:45:23.760Z,10.30
2023-02-24T10:48:40.680Z,9.90
2023-02-24T10:51:38.608Z,9.90
2023-02-24T10:54:48.494Z,9.80
2023-02-24T10:57:58.151Z,9.90
2023-02-24T11:01:17.496Z,10.20
2023-02-24T11:04:22.800Z,10.10
2023-02-24T11:07:25.665Z,9.70
2023-02-24T11:10:32.497Z,9.20
2023-02-24T11:13:38.748Z,9.50
2023-02-24T11:16:27.710Z,9.70
2023-02-24T11:18:57.186Z,10.00
2023-02-24T11:21:43.825Z,10.80
2023-02-24T11:24:17.852Z,10.50
2023-02-24T11:27:04.517Z,10.50
2023-02-24T11:30:08.600Z,10.30
2023-02-24T11:33:16.586Z,10.20
2023-02-24T11:36:37.979Z,10.00
2023-02-24T11:39:47.531Z,9.80
2023-02-24T11:42:48.635Z,10.30
2023-02-24T11:45:46.672Z,10.40
2023-02-24T11:48:37.908Z,10.20
2023-02-24T11:51:37.269Z,9.60
2023-02-24T11:54:26.371Z,9.60
2023-02-24T11:57:04.248Z,9.70
2023-02-24T12:00:04.896Z,9.80
2023-02-24T12:03:03.571Z,9.70
2023-02-24T12:05:39.187Z,10.10
2023-02-24T12:08:31.874Z,10.00
2023-02-24T12:11:33.713Z,9.90
2023-02-24T12:14:23.432Z,9.90
2023-02-24T12:17:21.212Z,9.70
2023-02-24T12:20:41.645Z,9.80
2023-02-24T12:23:34.035Z,9.80
2023-02-24T12:26:28.887Z,9.50
2023-02-24T12:29:49.560Z,9.40
2023-02-24T12:32:51.969Z,9.40
2023-02-24T12:35:59.770Z,9.10
2023-02-24T12:39:07.531Z,9.00
2023-02-24T12:41:59.434Z,9.00
2023-02-24T12:44:36.518Z,9.20
2023-02-24T12:47:36.363Z,9.30
2023-02-24T12:50:34.700Z,9.00
2023-02-24T12:53:04.871Z,8.90
2023-02-24T12:55:56.556Z,8.90
2023-02-24T12:58:45.515Z,8.90
2023-02-24T13:01:47.341Z,9.00
2023-02-24T13:04:31.610Z,9.00
2023-02-24T13:07:29.296Z,8.90
2023-02-24T13:10:22.422Z,9.00
2023-02-24T13:13:28.185Z,8.70
2023-02-24T13:16:40.468Z,8.70
2023-02-24T13:19:26.375Z,8.90
2023-02-24T13:22:13.775Z,8.80
2023-02-24T13:24:43.693Z,8.80
2023-02-24T13:27:35.408Z,8.60
2023-02-24T13:30:41.673Z,8.70
2023-02-24T13:33:18.272Z,8.50
2023-02-24T13:36:23.077Z,8.40
2023-02-24T13:39:32.734Z,8.60
2023-02-24T13:42:28.554Z,8.70
2023-02-24T13:45:04.081Z,8.70
2023-02-24T13:47:42.327Z,8.70
2023-02-24T13:50:52.132Z,8.40
2023-02-24T13:54:15.768Z,8.50
2023-02-24T13:57:12.680Z,8.50
2023-02-24T14:00:22.067Z,8.50
2023-02-24T14:03:27.678Z,8.30
2023-02-24T14:06:25.129Z,8.30
2023-02-24T14:09:17.084Z,8.20
2023-02-24T14:12:31.145Z,8.10
2023-02-24T14:15:16.786Z,8.30
2023-02-24T14:18:05.759Z,8.20
2023-02-24T14:20:54.946Z,8.20
2023-02-24T14:23:40.949Z,8.10
2023-02-24T14:26:28.899Z,8.10
2023-02-24T14:29:20.012Z,8.40
2023-02-24T14:32:18.486Z,8.20
2023-02-24T14:35:04.842Z,8.10
2023-02-24T14:37:54.962Z,8.10
2023-02-24T14:40:48.099Z,8.10
2023-02-24T14:43:41.994Z,8.10
2023-02-24T14:46:28.032Z,8.00
2023-02-24T14:49:19.713Z,8.00
2023-02-24T14:52:03.593Z,8.00
2023-02-24T14:54:57.107Z,7.90
2023-02-24T14:57:45.805Z,8.00
2023-02-24T15:00:37.910Z,7.90
2023-02-24T15:03:43.561Z,7.90
2023-02-24T15:06:40.600Z,7.90
2023-02-24T15:09:33.375Z,8.00
2023-02-24T15:12:33.163Z,7.90
2023-02-24T15:15:05.846Z,7.80
2023-02-24T15:17:53.657Z,7.80
2023-02-24T15:20:40.882Z,7.80
2023-02-24T15:23:28.028Z,7.80
2023-02-24T15:25:55.676Z,7.80
2023-02-24T15:28:42.369Z,7.80
2023-02-24T15:31:30.197Z,7.80
2023-02-24T15:34:21.078Z,7.80
2023-02-24T15:37:49.555Z,7.70
2023-02-24T15:40:21.754Z,7.60
2023-02-24T15:43:14.313Z,7.60
2023-02-24T15:46:12.975Z,7.60
2023-02-24T15:48:43.784Z,7.60
2023-02-24T15:51:45.323Z,7.60
2023-02-24T15:54:19.726Z,7.70
2023-02-24T15:56:48.617Z,7.70
2023-02-24T15:59:22.081Z,7.80
2023-02-24T16:02:20.315Z,7.60
2023-02-24T16:04:53.487Z,7.50
2023-02-24T16:07:42.832Z,7.20
2023-02-24T16:10:27.701Z,7.20
2023-02-24T16:13:21.730Z,7.20
2023-02-24T16:16:08.211Z,7.00
2023-02-24T16:18:56.832Z,6.80
2023-02-24T16:21:24.361Z,6.50
2023-02-24T16:23:51.869Z,6.40
2023-02-24T16:26:23.125Z,6.30
2023-02-24T16:28:57.420Z,6.20
2023-02-24T16:31:30.603Z,6.10
2023-02-24T16:34:00.562Z,6.00
2023-02-24T16:36:28.666Z,5.80
2023-02-24T16:39:15.602Z,5.70
2023-02-24T16:42:06.423Z,5.50
2023-02-24T16:44:53.313Z,5.50
2023-02-24T16:47:25.429Z,5.40
2023-02-24T16:50:29.000Z,5.40
2023-02-24T16:52:56.636Z,5.30
2023-02-24T16:55:43.382Z,5.20
2023-02-24T16:58:26.220Z,5.10
2023-02-24T17:01:20.522Z,5.10
2023-02-24T17:04:09.855Z,5.00
2023-02-24T17:06:37.556Z,5.00
2023-02-24T17:09:23.434Z,5.00
2023-02-24T17:12:17.289Z,4.90
2023-02-24T17:15:03.226Z,4.90
2023-02-24T17:17:51.266Z,4.90
2023-02-24T17:20:39.286Z,4.90
2023-02-24T17:23:25.030Z,4.90
2023-02-24T17:26:14.485Z,4.80
2023-02-24T17:29:00.501Z,4.80
2023-02-24T17:31:46.591Z,4.80
2023-02-24T17:34:32.558Z,4.80
2023-02-24T17:36:59.852Z,4.80
2023-02-24T17:39:45.781Z,4.90
2023-02-24T17:42:31.601Z,4.90
2023-02-24T17:44:59.205Z,4.90
2023-02-24T17:47:44.800Z,4.90
2023-02-24T17:50:30.760Z,4.90
2023-02-24T17:53:16.495Z,4.80
2023-02-24T17:56:05.787Z,4.80
2023-02-24T17:58:51.895Z,4.80
2023-02-24T18:01:40.874Z,4.80
2023-02-24T18:04:31.799Z,4.80
2023-02-24T18:07:17.945Z,4.80
2023-02-24T18:09:45.800Z,4.80
2023-02-24T18:12:33.260Z,4.80
2023-02-24T18:15:19.201Z,4.80
2023-02-24T18:18:06.907Z,4.70
2023-02-24T18:20:52.612Z,4.70
2023-02-24T18:23:41.032Z,4.70
2023-02-24T18:26:27.110Z,4.70
2023-02-24T18:28:55.072Z,4.70
2023-02-24T18:31:41.217Z,4.70
2023-02-24T18:34:09.230Z,4.70
2023-02-24T18:36:36.607Z,4.70
2023-02-24T18:39:24.400Z,4.70
2023-02-24T18:42:10.275Z,4.70
2023-02-24T18:44:56.704Z,4.80
2023-02-24T18:47:42.835Z,4.80
2023-02-24T18:50:31.886Z,4.90
2023-02-24T18:53:18.166Z,4.80
2023-02-24T18:56:27.322Z,4.80
2023-02-24T18:59:13.440Z,5.00
2023-02-24T19:02:02.579Z,5.00
2023-02-24T19:04:48.871Z,5.10
2023-02-24T19:07:36.114Z,5.10
2023-02-24T19:10:22.047Z,5.10
2023-02-24T19:13:02.571Z,5.20
2023-02-24T19:15:48.777Z,5.20
2023-02-24T19:18:36.308Z,5.20
2023-02-24T19:21:23.102Z,5.20
2023-02-24T19:24:11.322Z,5.30
2023-02-24T19:26:57.662Z,5.20
2023-02-24T19:29:45.164Z,5.20
2023-02-24T19:32:31.131Z,5.10
2023-02-24T19:35:09.519Z,5.10
2023-02-24T19:37:39.433Z,5.20
2023-02-24T19:40:26.471Z,5.20
2023-02-24T19:43:14.115Z,5.30
2023-02-24T19:46:08.333Z,5.30
2023-02-24T19:48:48.710Z,5.20
2023-02-24T19:51:36.052Z,5.30
2023-02-24T19:54:25.732Z,5.30
2023-02-24T19:57:11.420Z,5.30
2023-02-24T19:59:59.311Z,5.30
2023-02-24T20:02:27.428Z,5.30
2023-02-24T20:05:13.425Z,5.40
2023-02-24T20:07:46.645Z,5.40
2023-02-24T20:10:34.246Z,5.40
2023-02-24T20:13:23.720Z,5.30
2023-02-24T20:16:13.903Z,5.40
2023-02-24T20:18:55.577Z,5.50
2023-02-24T20:21:45.529Z,5.60
2023-02-24T20:24:36.941Z,5.60
2023-02-24T20:27:26.919Z,5.60
2023-02-24T20:29:57.309Z,5.60
2023-02-24T20:32:45.567Z,5.60
2023-02-24T20:35:13.200Z,5.60
2023-02-24T20:38:06.324Z,5.50
2023-02-24T20:40:43.693Z,5.50
2023-02-24T20:43:23.650Z,5.40
2023-02-24T20:46:31.425Z,5.50
2023-02-24T20:49:24.801Z,5.50
2023-02-24T20:52:12.337Z,5.50
2023-02-24T20:55:01.910Z,5.40
2023-02-24T20:57:56.194Z,5.40
2023-02-24T21:00:48.270Z,5.40
2023-02-24T21:03:41.918Z,5.50
2023-02-24T21:18:38.051Z,5.40
2023-02-24T21:33:09.761Z,5.30
2023-02-24T21:36:05.105Z,5.30
2023-02-24T21:38:54.365Z,5.30
2023-02-24T21:41:53.298Z,5.20
2023-02-24T21:45:03.691Z,5.20
2023-02-24T21:47:34.474Z,5.20
2023-02-24T21:50:15.337Z,5.00
2023-02-24T21:52:54.956Z,4.90
2023-02-24T21:55:26.803Z,4.90
2023-02-24T21:58:07.493Z,4.90
2023-02-24T22:00:34.955Z,4.90
2023-02-24T22:03:07.510Z,4.90
2023-02-24T22:05:34.973Z,5.00
2023-02-24T22:08:05.663Z,5.00
2023-02-24T22:10:33.153Z,5.00
2023-02-24T22:13:02.810Z,5.00
2023-02-24T22:15:33.078Z,5.00
2023-02-24T22:18:00.391Z,4.90
2023-02-24T22:20:38.120Z,4.90
2023-02-24T22:23:07.550Z,4.80
2023-02-24T22:25:37.879Z,4.80
2023-02-24T22:28:12.690Z,4.70
2023-02-24T22:30:42.597Z,4.60
2023-02-24T22:33:09.968Z,4.60
2023-02-24T22:35:42.813Z,4.60
2023-02-24T22:38:13.597Z,4.60
2023-02-24T22:40:59.625Z,4.70
2023-02-24T22:43:33.901Z,4.70
2023-02-24T22:46:07.229Z,4.70
2023-02-24T22:48:37.921Z,4.70
2023-02-24T22:51:10.316Z,4.80
2023-02-24T22:53:44.455Z,4.70
2023-02-24T22:56:13.414Z,4.80
2023-02-24T22:58:46.229Z,4.70
2023-02-24T23:01:25.535Z,4.70
2023-02-24T23:03:58.939Z,4.70
2023-02-24T23:06:30.118Z,4.60
2023-02-24T23:08:59.730Z,4.60
2023-02-24T23:11:36.452Z,4.60
2023-02-24T23:14:10.151Z,4.50
2023-02-24T23:16:41.514Z,4.60
2023-02-24T23:19:16.866Z,4.60
2023-02-24T23:21:47.170Z,4.70
2023-02-24T23:24:21.701Z,4.70
2023-02-24T23:26:57.989Z,4.80
2023-02-24T23:29:26.730Z,4.80
2023-02-24T23:32:12.447Z,4.80
2023-02-24T23:34:58.177Z,4.80
2023-02-24T23:37:28.283Z,4.80
2023-02-24T23:40:17.223Z,4.80
2023-02-24T23:43:03.014Z,4.90
2023-02-24T23:45:49.183Z,4.80
2023-02-24T23:48:35.007Z,4.90
2023-02-24T23:51:13.970Z,4.90
2023-02-24T23:53:45.920Z,4.90
2023-02-24T23:56:21.761Z,5.00
2023-02-24T23:58:56.945Z,4.90
